sensor_id;sensor_type;location;lat;lon;timestamp;P1;durP1;ratioP1;P2;durP2;ratioP2
51248;SDS011;39642;47.556;18.728;2023-04-01T00:00:55;9.48;;;2.83;;
51248;SDS011;39642;47.556;18.728;2023-04-01T00:03:23;9.30;;;2.83;;
51248;SDS011;39642;47.556;18.728;2023-04-01T00:05:50;10.00;;;3.03;;
51248;SDS011;39642;47.556;18.728;2023-04-01T00:08:16;9.07;;;2.95;;
51248;SDS011;39642;47.556;18.728;2023-04-01T00:10:43;9.60;;;3.00;;
51248;SDS011;39642;47.556;18.728;2023-04-01T00:13:08;9.20;;;2.60;;
51248;SDS011;39642;47.556;18.728;2023-04-01T00:15:35;8.48;;;2.60;;
51248;SDS011;39642;47.556;18.728;2023-04-01T00:18:01;9.27;;;2.78;;
51248;SDS011;39642;47.556;18.728;2023-04-01T00:20:27;9.30;;;2.95;;
51248;SDS011;39642;47.556;18.728;2023-04-01T00:22:53;7.90;;;2.40;;
51248;SDS011;39642;47.556;18.728;2023-04-01T00:25:19;8.38;;;2.55;;
51248;SDS011;39642;47.556;18.728;2023-04-01T00:27:45;9.48;;;2.60;;
51248;SDS011;39642;47.556;18.728;2023-04-01T00:30:11;9.30;;;2.62;;
51248;SDS011;39642;47.556;18.728;2023-04-01T00:32:37;7.70;;;2.30;;
51248;SDS011;39642;47.556;18.728;2023-04-01T00:35:03;9.18;;;2.70;;
51248;SDS011;39642;47.556;18.728;2023-04-01T00:37:29;7.95;;;2.20;;
51248;SDS011;39642;47.556;18.728;2023-04-01T00:39:56;9.32;;;2.47;;
51248;SDS011;39642;47.556;18.728;2023-04-01T00:42:22;8.70;;;2.53;;
51248;SDS011;39642;47.556;18.728;2023-04-01T00:44:52;7.87;;;2.40;;
51248;SDS011;39642;47.556;18.728;2023-04-01T00:47:19;8.10;;;2.40;;
51248;SDS011;39642;47.556;18.728;2023-04-01T00:49:48;8.60;;;2.30;;
51248;SDS011;39642;47.556;18.728;2023-04-01T00:52:20;9.02;;;2.47;;
51248;SDS011;39642;47.556;18.728;2023-04-01T00:54:49;6.72;;;2.00;;
51248;SDS011;39642;47.556;18.728;2023-04-01T00:57:23;8.02;;;2.30;;
51248;SDS011;39642;47.556;18.728;2023-04-01T00:59:54;7.30;;;2.12;;
51248;SDS011;39642;47.556;18.728;2023-04-01T01:02:20;6.70;;;2.10;;
51248;SDS011;39642;47.556;18.728;2023-04-01T01:04:47;8.27;;;2.47;;
51248;SDS011;39642;47.556;18.728;2023-04-01T01:10:08;9.00;;;2.70;;
51248;SDS011;39642;47.556;18.728;2023-04-01T01:18:06;9.40;;;2.40;;
51248;SDS011;39642;47.556;18.728;2023-04-01T01:20:48;8.77;;;2.55;;
51248;SDS011;39642;47.556;18.728;2023-04-01T01:25:57;8.23;;;2.30;;
51248;SDS011;39642;47.556;18.728;2023-04-01T01:31:34;7.62;;;2.03;;
51248;SDS011;39642;47.556;18.728;2023-04-01T01:36:57;7.93;;;2.42;;
51248;SDS011;39642;47.556;18.728;2023-04-01T01:39:28;7.05;;;2.00;;
51248;SDS011;39642;47.556;18.728;2023-04-01T01:41:57;7.87;;;2.05;;
51248;SDS011;39642;47.556;18.728;2023-04-01T01:44:26;8.25;;;2.10;;
51248;SDS011;39642;47.556;18.728;2023-04-01T01:46:56;7.65;;;2.12;;
51248;SDS011;39642;47.556;18.728;2023-04-01T01:49:22;5.72;;;1.90;;
51248;SDS011;39642;47.556;18.728;2023-04-01T01:51:50;6.65;;;1.92;;
51248;SDS011;39642;47.556;18.728;2023-04-01T01:54:16;6.75;;;1.98;;
51248;SDS011;39642;47.556;18.728;2023-04-01T01:56:44;7.45;;;2.08;;
51248;SDS011;39642;47.556;18.728;2023-04-01T01:59:13;6.12;;;1.90;;
51248;SDS011;39642;47.556;18.728;2023-04-01T02:01:42;6.97;;;2.08;;
51248;SDS011;39642;47.556;18.728;2023-04-01T02:04:11;6.90;;;2.00;;
51248;SDS011;39642;47.556;18.728;2023-04-01T02:06:41;7.28;;;2.17;;
51248;SDS011;39642;47.556;18.728;2023-04-01T02:09:12;6.20;;;2.03;;
51248;SDS011;39642;47.556;18.728;2023-04-01T02:16:54;7.18;;;2.05;;
51248;SDS011;39642;47.556;18.728;2023-04-01T02:19:25;5.40;;;1.70;;
51248;SDS011;39642;47.556;18.728;2023-04-01T02:21:55;6.35;;;1.90;;
51248;SDS011;39642;47.556;18.728;2023-04-01T02:24:25;8.25;;;1.90;;
51248;SDS011;39642;47.556;18.728;2023-04-01T02:26:53;6.78;;;1.90;;
51248;SDS011;39642;47.556;18.728;2023-04-01T02:29:20;6.70;;;1.90;;
51248;SDS011;39642;47.556;18.728;2023-04-01T02:31:48;6.30;;;2.00;;
51248;SDS011;39642;47.556;18.728;2023-04-01T02:34:16;8.20;;;2.28;;
51248;SDS011;39642;47.556;18.728;2023-04-01T02:36:42;7.35;;;2.00;;
51248;SDS011;39642;47.556;18.728;2023-04-01T02:39:08;6.78;;;1.85;;
51248;SDS011;39642;47.556;18.728;2023-04-01T02:41:40;6.05;;;1.83;;
51248;SDS011;39642;47.556;18.728;2023-04-01T02:44:08;6.05;;;2.00;;
51248;SDS011;39642;47.556;18.728;2023-04-01T02:46:35;5.97;;;1.85;;
51248;SDS011;39642;47.556;18.728;2023-04-01T02:49:01;5.45;;;1.90;;
51248;SDS011;39642;47.556;18.728;2023-04-01T02:51:27;6.80;;;1.90;;
51248;SDS011;39642;47.556;18.728;2023-04-01T02:53:53;7.05;;;1.70;;
51248;SDS011;39642;47.556;18.728;2023-04-01T02:56:19;6.97;;;1.80;;
51248;SDS011;39642;47.556;18.728;2023-04-01T02:58:45;6.97;;;1.90;;
51248;SDS011;39642;47.556;18.728;2023-04-01T03:01:11;6.43;;;1.90;;
51248;SDS011;39642;47.556;18.728;2023-04-01T03:03:37;6.32;;;1.75;;
51248;SDS011;39642;47.556;18.728;2023-04-01T03:06:07;6.32;;;1.70;;
51248;SDS011;39642;47.556;18.728;2023-04-01T03:08:35;6.87;;;2.12;;
51248;SDS011;39642;47.556;18.728;2023-04-01T03:11:01;5.20;;;1.90;;
51248;SDS011;39642;47.556;18.728;2023-04-01T03:13:27;5.53;;;1.80;;
51248;SDS011;39642;47.556;18.728;2023-04-01T03:15:53;6.00;;;1.60;;
51248;SDS011;39642;47.556;18.728;2023-04-01T03:18:19;8.48;;;1.73;;
51248;SDS011;39642;47.556;18.728;2023-04-01T03:20:45;5.60;;;1.75;;
51248;SDS011;39642;47.556;18.728;2023-04-01T03:23:11;5.93;;;1.75;;
51248;SDS011;39642;47.556;18.728;2023-04-01T03:25:38;6.03;;;1.80;;
51248;SDS011;39642;47.556;18.728;2023-04-01T03:28:04;7.37;;;2.05;;
51248;SDS011;39642;47.556;18.728;2023-04-01T03:30:30;6.37;;;1.80;;
51248;SDS011;39642;47.556;18.728;2023-04-01T03:32:57;5.12;;;1.60;;
51248;SDS011;39642;47.556;18.728;2023-04-01T03:35:24;5.00;;;1.60;;
51248;SDS011;39642;47.556;18.728;2023-04-01T03:37:50;7.15;;;1.77;;
51248;SDS011;39642;47.556;18.728;2023-04-01T03:40:17;4.62;;;1.60;;
51248;SDS011;39642;47.556;18.728;2023-04-01T03:42:43;5.18;;;1.70;;
51248;SDS011;39642;47.556;18.728;2023-04-01T03:45:09;4.62;;;1.62;;
51248;SDS011;39642;47.556;18.728;2023-04-01T03:47:35;7.07;;;2.05;;
51248;SDS011;39642;47.556;18.728;2023-04-01T03:50:02;5.35;;;1.65;;
51248;SDS011;39642;47.556;18.728;2023-04-01T03:52:28;4.25;;;1.60;;
51248;SDS011;39642;47.556;18.728;2023-04-01T03:54:54;6.03;;;1.67;;
51248;SDS011;39642;47.556;18.728;2023-04-01T03:57:21;4.97;;;1.60;;
51248;SDS011;39642;47.556;18.728;2023-04-01T03:59:46;6.37;;;1.65;;
51248;SDS011;39642;47.556;18.728;2023-04-01T04:02:12;5.93;;;1.73;;
51248;SDS011;39642;47.556;18.728;2023-04-01T04:04:38;6.20;;;1.85;;
51248;SDS011;39642;47.556;18.728;2023-04-01T04:07:04;5.65;;;1.70;;
51248;SDS011;39642;47.556;18.728;2023-04-01T04:09:30;5.60;;;1.67;;
51248;SDS011;39642;47.556;18.728;2023-04-01T04:11:57;5.57;;;1.60;;
51248;SDS011;39642;47.556;18.728;2023-04-01T04:14:23;4.37;;;1.50;;
51248;SDS011;39642;47.556;18.728;2023-04-01T04:16:49;6.05;;;1.60;;
51248;SDS011;39642;47.556;18.728;2023-04-01T04:19:15;4.35;;;1.50;;
51248;SDS011;39642;47.556;18.728;2023-04-01T04:21:41;5.75;;;1.42;;
51248;SDS011;39642;47.556;18.728;2023-04-01T04:24:08;5.05;;;1.50;;
51248;SDS011;39642;47.556;18.728;2023-04-01T04:26:34;6.07;;;1.65;;
51248;SDS011;39642;47.556;18.728;2023-04-01T04:29:00;6.55;;;1.60;;
51248;SDS011;39642;47.556;18.728;2023-04-01T04:31:26;4.30;;;1.40;;
51248;SDS011;39642;47.556;18.728;2023-04-01T04:33:52;4.30;;;1.50;;
51248;SDS011;39642;47.556;18.728;2023-04-01T04:36:19;4.57;;;1.60;;
51248;SDS011;39642;47.556;18.728;2023-04-01T04:38:46;3.45;;;1.30;;
51248;SDS011;39642;47.556;18.728;2023-04-01T04:41:13;5.25;;;1.58;;
51248;SDS011;39642;47.556;18.728;2023-04-01T04:43:40;5.50;;;1.70;;
51248;SDS011;39642;47.556;18.728;2023-04-01T04:46:08;6.05;;;1.50;;
51248;SDS011;39642;47.556;18.728;2023-04-01T04:48:35;4.97;;;1.52;;
51248;SDS011;39642;47.556;18.728;2023-04-01T04:51:01;5.22;;;1.62;;
51248;SDS011;39642;47.556;18.728;2023-04-01T04:53:28;4.90;;;1.60;;
51248;SDS011;39642;47.556;18.728;2023-04-01T04:55:54;4.62;;;1.58;;
51248;SDS011;39642;47.556;18.728;2023-04-01T04:58:20;5.82;;;1.60;;
51248;SDS011;39642;47.556;18.728;2023-04-01T05:00:46;5.10;;;1.60;;
51248;SDS011;39642;47.556;18.728;2023-04-01T05:03:13;5.43;;;1.55;;
51248;SDS011;39642;47.556;18.728;2023-04-01T05:05:39;5.75;;;1.60;;
51248;SDS011;39642;47.556;18.728;2023-04-01T05:08:05;5.15;;;1.60;;
51248;SDS011;39642;47.556;18.728;2023-04-01T05:10:32;6.28;;;1.70;;
51248;SDS011;39642;47.556;18.728;2023-04-01T05:12:58;4.10;;;1.40;;
51248;SDS011;39642;47.556;18.728;2023-04-01T05:15:24;6.85;;;1.70;;
51248;SDS011;39642;47.556;18.728;2023-04-01T05:17:50;5.57;;;1.50;;
51248;SDS011;39642;47.556;18.728;2023-04-01T05:20:16;4.25;;;1.50;;
51248;SDS011;39642;47.556;18.728;2023-04-01T05:22:42;6.30;;;1.75;;
51248;SDS011;39642;47.556;18.728;2023-04-01T05:25:08;4.82;;;1.60;;
51248;SDS011;39642;47.556;18.728;2023-04-01T05:27:35;6.30;;;1.60;;
51248;SDS011;39642;47.556;18.728;2023-04-01T05:30:00;6.18;;;1.67;;
51248;SDS011;39642;47.556;18.728;2023-04-01T05:32:26;4.82;;;1.58;;
51248;SDS011;39642;47.556;18.728;2023-04-01T05:34:52;5.20;;;1.65;;
51248;SDS011;39642;47.556;18.728;2023-04-01T05:37:19;7.00;;;1.90;;
51248;SDS011;39642;47.556;18.728;2023-04-01T05:39:45;4.55;;;1.50;;
51248;SDS011;39642;47.556;18.728;2023-04-01T05:42:11;5.40;;;1.55;;
51248;SDS011;39642;47.556;18.728;2023-04-01T05:44:37;4.93;;;1.58;;
51248;SDS011;39642;47.556;18.728;2023-04-01T05:47:03;6.18;;;1.70;;
51248;SDS011;39642;47.556;18.728;2023-04-01T05:49:30;5.97;;;1.70;;
51248;SDS011;39642;47.556;18.728;2023-04-01T05:51:56;6.68;;;1.70;;
51248;SDS011;39642;47.556;18.728;2023-04-01T05:54:22;5.57;;;1.70;;
51248;SDS011;39642;47.556;18.728;2023-04-01T05:56:48;5.57;;;1.75;;
51248;SDS011;39642;47.556;18.728;2023-04-01T05:59:14;5.50;;;1.65;;
51248;SDS011;39642;47.556;18.728;2023-04-01T06:01:40;6.40;;;1.70;;
51248;SDS011;39642;47.556;18.728;2023-04-01T06:04:06;5.57;;;1.70;;
51248;SDS011;39642;47.556;18.728;2023-04-01T06:06:34;6.40;;;1.70;;
51248;SDS011;39642;47.556;18.728;2023-04-01T06:09:06;4.87;;;1.67;;
51248;SDS011;39642;47.556;18.728;2023-04-01T06:17:37;5.62;;;1.80;;
51248;SDS011;39642;47.556;18.728;2023-04-01T06:45:09;6.35;;;1.77;;
51248;SDS011;39642;47.556;18.728;2023-04-01T06:53:42;8.43;;;1.80;;
51248;SDS011;39642;47.556;18.728;2023-04-01T06:56:27;6.10;;;1.75;;
51248;SDS011;39642;47.556;18.728;2023-04-01T06:58:59;5.25;;;1.60;;
51248;SDS011;39642;47.556;18.728;2023-04-01T07:01:33;4.95;;;1.62;;
51248;SDS011;39642;47.556;18.728;2023-04-01T07:04:05;4.47;;;1.58;;
51248;SDS011;39642;47.556;18.728;2023-04-01T07:06:39;6.12;;;1.80;;
51248;SDS011;39642;47.556;18.728;2023-04-01T07:09:12;5.28;;;1.55;;
51248;SDS011;39642;47.556;18.728;2023-04-01T07:11:42;4.72;;;1.60;;
51248;SDS011;39642;47.556;18.728;2023-04-01T07:16:54;6.20;;;1.50;;
51248;SDS011;39642;47.556;18.728;2023-04-01T07:22:14;4.90;;;1.60;;
51248;SDS011;39642;47.556;18.728;2023-04-01T07:24:46;5.10;;;1.50;;
51248;SDS011;39642;47.556;18.728;2023-04-01T07:27:13;6.22;;;1.73;;
51248;SDS011;39642;47.556;18.728;2023-04-01T07:29:40;4.62;;;1.50;;
51248;SDS011;39642;47.556;18.728;2023-04-01T07:43:03;5.20;;;1.52;;
51248;SDS011;39642;47.556;18.728;2023-04-01T07:48:34;5.40;;;1.52;;
51248;SDS011;39642;47.556;18.728;2023-04-01T07:51:34;4.32;;;1.50;;
51248;SDS011;39642;47.556;18.728;2023-04-01T07:57:07;4.50;;;1.40;;
51248;SDS011;39642;47.556;18.728;2023-04-01T08:05:21;5.07;;;1.48;;
51248;SDS011;39642;47.556;18.728;2023-04-01T08:13:35;7.05;;;1.62;;
51248;SDS011;39642;47.556;18.728;2023-04-01T08:16:14;5.28;;;1.42;;
51248;SDS011;39642;47.556;18.728;2023-04-01T08:21:56;6.65;;;1.60;;
51248;SDS011;39642;47.556;18.728;2023-04-01T08:24:33;7.00;;;1.60;;
51248;SDS011;39642;47.556;18.728;2023-04-01T08:27:21;6.35;;;1.60;;
51248;SDS011;39642;47.556;18.728;2023-04-01T08:30:04;6.40;;;1.80;;
51248;SDS011;39642;47.556;18.728;2023-04-01T08:32:42;7.30;;;1.58;;
51248;SDS011;39642;47.556;18.728;2023-04-01T08:35:29;8.70;;;1.80;;
51248;SDS011;39642;47.556;18.728;2023-04-01T08:38:13;9.85;;;1.60;;
51248;SDS011;39642;47.556;18.728;2023-04-01T08:41:00;6.90;;;1.87;;
51248;SDS011;39642;47.556;18.728;2023-04-01T08:44:11;5.12;;;1.37;;
51248;SDS011;39642;47.556;18.728;2023-04-01T09:11:12;9.18;;;1.70;;
51248;SDS011;39642;47.556;18.728;2023-04-01T09:13:58;9.27;;;2.05;;
51248;SDS011;39642;47.556;18.728;2023-04-01T09:25:22;7.75;;;1.60;;
51248;SDS011;39642;47.556;18.728;2023-04-01T09:27:57;8.68;;;1.67;;
51248;SDS011;39642;47.556;18.728;2023-04-01T09:30:34;7.07;;;1.60;;
51248;SDS011;39642;47.556;18.728;2023-04-01T09:33:36;8.35;;;1.70;;
51248;SDS011;39642;47.556;18.728;2023-04-01T09:41:52;12.65;;;1.60;;
51248;SDS011;39642;47.556;18.728;2023-04-01T09:44:30;11.15;;;2.20;;
51248;SDS011;39642;47.556;18.728;2023-04-01T09:55:46;9.82;;;1.85;;
51248;SDS011;39642;47.556;18.728;2023-04-01T10:21:17;8.32;;;1.65;;
51248;SDS011;39642;47.556;18.728;2023-04-01T10:27:44;8.95;;;1.70;;
51248;SDS011;39642;47.556;18.728;2023-04-01T10:35:33;8.10;;;1.73;;
51248;SDS011;39642;47.556;18.728;2023-04-01T11:00:30;9.80;;;1.92;;
51248;SDS011;39642;47.556;18.728;2023-04-01T11:23:08;7.50;;;1.52;;
51248;SDS011;39642;47.556;18.728;2023-04-01T11:25:49;9.20;;;1.60;;
51248;SDS011;39642;47.556;18.728;2023-04-01T11:47:52;7.82;;;1.60;;
51248;SDS011;39642;47.556;18.728;2023-04-01T11:50:37;7.10;;;1.70;;
51248;SDS011;39642;47.556;18.728;2023-04-01T12:01:42;10.82;;;1.83;;
51248;SDS011;39642;47.556;18.728;2023-04-01T12:07:06;6.32;;;1.50;;
51248;SDS011;39642;47.556;18.728;2023-04-01T12:12:20;10.30;;;1.80;;
51248;SDS011;39642;47.556;18.728;2023-04-01T12:20:39;6.70;;;1.58;;
51248;SDS011;39642;47.556;18.728;2023-04-01T12:31:18;5.15;;;1.40;;
51248;SDS011;39642;47.556;18.728;2023-04-01T12:36:59;4.93;;;1.40;;
51248;SDS011;39642;47.556;18.728;2023-04-01T12:51:21;9.65;;;1.50;;
51248;SDS011;39642;47.556;18.728;2023-04-01T13:07:40;4.78;;;1.40;;
51248;SDS011;39642;47.556;18.728;2023-04-01T13:15:37;5.78;;;1.50;;
51248;SDS011;39642;47.556;18.728;2023-04-01T13:21:00;7.87;;;1.67;;
51248;SDS011;39642;47.556;18.728;2023-04-01T13:23:47;8.27;;;1.80;;
51248;SDS011;39642;47.556;18.728;2023-04-01T13:26:28;8.43;;;2.05;;
51248;SDS011;39642;47.556;18.728;2023-04-01T13:29:18;8.23;;;2.10;;
51248;SDS011;39642;47.556;18.728;2023-04-01T13:42:27;8.52;;;2.62;;
51248;SDS011;39642;47.556;18.728;2023-04-01T13:45:01;9.10;;;2.60;;
51248;SDS011;39642;47.556;18.728;2023-04-01T13:56:08;11.18;;;3.58;;
51248;SDS011;39642;47.556;18.728;2023-04-01T13:58:56;12.88;;;4.28;;
51248;SDS011;39642;47.556;18.728;2023-04-01T14:01:48;12.55;;;4.35;;
51248;SDS011;39642;47.556;18.728;2023-04-01T14:10:11;14.50;;;4.30;;
51248;SDS011;39642;47.556;18.728;2023-04-01T14:15:48;13.35;;;4.30;;
51248;SDS011;39642;47.556;18.728;2023-04-01T14:21:21;12.18;;;5.20;;
51248;SDS011;39642;47.556;18.728;2023-04-01T14:32:16;14.20;;;5.82;;
51248;SDS011;39642;47.556;18.728;2023-04-01T14:38:04;14.63;;;5.93;;
51248;SDS011;39642;47.556;18.728;2023-04-01T14:43:31;13.82;;;6.12;;
51248;SDS011;39642;47.556;18.728;2023-04-01T14:49:35;14.07;;;5.78;;
51248;SDS011;39642;47.556;18.728;2023-04-01T14:52:27;15.60;;;6.43;;
51248;SDS011;39642;47.556;18.728;2023-04-01T14:54:59;14.80;;;5.97;;
51248;SDS011;39642;47.556;18.728;2023-04-01T14:57:27;16.15;;;6.60;;
51248;SDS011;39642;47.556;18.728;2023-04-01T15:02:45;13.65;;;5.85;;
51248;SDS011;39642;47.556;18.728;2023-04-01T15:28:06;15.63;;;6.35;;
51248;SDS011;39642;47.556;18.728;2023-04-01T15:30:37;14.60;;;6.00;;
51248;SDS011;39642;47.556;18.728;2023-04-01T15:41:16;14.40;;;5.93;;
51248;SDS011;39642;47.556;18.728;2023-04-01T15:43:49;13.07;;;6.05;;
51248;SDS011;39642;47.556;18.728;2023-04-01T15:49:04;14.55;;;6.25;;
51248;SDS011;39642;47.556;18.728;2023-04-01T15:51:58;16.48;;;7.30;;
51248;SDS011;39642;47.556;18.728;2023-04-01T16:00:17;15.27;;;6.65;;
51248;SDS011;39642;47.556;18.728;2023-04-01T16:05:51;18.75;;;7.78;;
51248;SDS011;39642;47.556;18.728;2023-04-01T16:11:22;18.17;;;8.07;;
51248;SDS011;39642;47.556;18.728;2023-04-01T16:14:14;16.62;;;8.02;;
51248;SDS011;39642;47.556;18.728;2023-04-01T16:19:41;18.05;;;8.40;;
51248;SDS011;39642;47.556;18.728;2023-04-01T16:22:18;17.08;;;8.30;;
51248;SDS011;39642;47.556;18.728;2023-04-01T16:30:37;19.20;;;8.80;;
51248;SDS011;39642;47.556;18.728;2023-04-01T16:38:53;17.33;;;8.25;;
51248;SDS011;39642;47.556;18.728;2023-04-01T16:42:06;18.42;;;8.85;;
51248;SDS011;39642;47.556;18.728;2023-04-01T16:47:42;17.75;;;7.95;;
51248;SDS011;39642;47.556;18.728;2023-04-01T16:50:26;17.35;;;7.90;;
51248;SDS011;39642;47.556;18.728;2023-04-01T16:58:36;15.90;;;7.20;;
51248;SDS011;39642;47.556;18.728;2023-04-01T17:01:06;15.98;;;7.93;;
51248;SDS011;39642;47.556;18.728;2023-04-01T17:03:39;16.48;;;7.12;;
51248;SDS011;39642;47.556;18.728;2023-04-01T17:17:14;17.17;;;7.28;;
51248;SDS011;39642;47.556;18.728;2023-04-01T17:23:01;16.10;;;7.43;;
51248;SDS011;39642;47.556;18.728;2023-04-01T17:25:39;16.75;;;7.22;;
51248;SDS011;39642;47.556;18.728;2023-04-01T17:34:09;17.05;;;6.95;;
51248;SDS011;39642;47.556;18.728;2023-04-01T17:39:47;14.87;;;6.80;;
51248;SDS011;39642;47.556;18.728;2023-04-01T17:45:10;16.42;;;6.90;;
51248;SDS011;39642;47.556;18.728;2023-04-01T17:48:14;15.70;;;6.75;;
51248;SDS011;39642;47.556;18.728;2023-04-01T17:53:35;16.20;;;6.60;;
51248;SDS011;39642;47.556;18.728;2023-04-01T17:56:12;15.82;;;7.10;;
51248;SDS011;39642;47.556;18.728;2023-04-01T17:58:47;15.63;;;6.70;;
51248;SDS011;39642;47.556;18.728;2023-04-01T18:01:34;15.00;;;6.78;;
51248;SDS011;39642;47.556;18.728;2023-04-01T18:17:21;15.15;;;7.10;;
51248;SDS011;39642;47.556;18.728;2023-04-01T18:19:52;15.07;;;7.03;;
51248;SDS011;39642;47.556;18.728;2023-04-01T18:22:43;15.45;;;6.85;;
51248;SDS011;39642;47.556;18.728;2023-04-01T18:25:22;14.57;;;6.35;;
51248;SDS011;39642;47.556;18.728;2023-04-01T18:28:11;16.40;;;7.65;;
51248;SDS011;39642;47.556;18.728;2023-04-01T18:33:46;15.50;;;6.87;;
51248;SDS011;39642;47.556;18.728;2023-04-01T18:36:18;15.50;;;6.80;;
51248;SDS011;39642;47.556;18.728;2023-04-01T18:41:22;14.90;;;6.80;;
51248;SDS011;39642;47.556;18.728;2023-04-01T18:51:54;13.93;;;6.30;;
51248;SDS011;39642;47.556;18.728;2023-04-01T18:56:58;14.55;;;6.50;;
51248;SDS011;39642;47.556;18.728;2023-04-01T19:00:32;14.38;;;6.28;;
51248;SDS011;39642;47.556;18.728;2023-04-01T19:02:48;15.27;;;6.50;;
51248;SDS011;39642;47.556;18.728;2023-04-01T19:05:34;14.30;;;6.32;;
51248;SDS011;39642;47.556;18.728;2023-04-01T19:13:36;14.40;;;6.35;;
51248;SDS011;39642;47.556;18.728;2023-04-01T19:16:09;13.45;;;5.72;;
51248;SDS011;39642;47.556;18.728;2023-04-01T19:24:31;14.05;;;5.75;;
51248;SDS011;39642;47.556;18.728;2023-04-01T19:27:06;12.68;;;5.57;;
51248;SDS011;39642;47.556;18.728;2023-04-01T19:32:34;13.00;;;5.62;;
51248;SDS011;39642;47.556;18.728;2023-04-01T19:35:51;13.23;;;5.55;;
51248;SDS011;39642;47.556;18.728;2023-04-01T19:38:28;14.07;;;5.43;;
51248;SDS011;39642;47.556;18.728;2023-04-01T19:46:41;11.70;;;5.22;;
51248;SDS011;39642;47.556;18.728;2023-04-01T19:54:58;12.82;;;5.37;;
51248;SDS011;39642;47.556;18.728;2023-04-01T20:00:05;13.25;;;5.10;;
51248;SDS011;39642;47.556;18.728;2023-04-01T20:02:53;12.73;;;4.80;;
51248;SDS011;39642;47.556;18.728;2023-04-01T20:08:22;12.65;;;4.80;;
51248;SDS011;39642;47.556;18.728;2023-04-01T20:19:38;11.55;;;4.57;;
51248;SDS011;39642;47.556;18.728;2023-04-01T20:22:27;11.43;;;4.78;;
51248;SDS011;39642;47.556;18.728;2023-04-01T20:24:56;11.80;;;4.45;;
51248;SDS011;39642;47.556;18.728;2023-04-01T20:27:29;11.65;;;4.75;;
51248;SDS011;39642;47.556;18.728;2023-04-01T20:33:31;11.95;;;4.90;;
51248;SDS011;39642;47.556;18.728;2023-04-01T20:35:57;11.88;;;4.60;;
51248;SDS011;39642;47.556;18.728;2023-04-01T20:43:51;12.32;;;4.45;;
51248;SDS011;39642;47.556;18.728;2023-04-01T20:46:41;12.10;;;4.35;;
51248;SDS011;39642;47.556;18.728;2023-04-01T20:57:05;10.10;;;3.95;;
51248;SDS011;39642;47.556;18.728;2023-04-01T21:07:28;11.98;;;3.97;;
51248;SDS011;39642;47.556;18.728;2023-04-01T21:16:26;12.30;;;4.15;;
51248;SDS011;39642;47.556;18.728;2023-04-01T21:37:33;10.68;;;4.03;;
51248;SDS011;39642;47.556;18.728;2023-04-01T21:46:05;10.93;;;3.65;;
51248;SDS011;39642;47.556;18.728;2023-04-01T21:51:42;10.95;;;3.80;;
51248;SDS011;39642;47.556;18.728;2023-04-01T22:00:36;9.80;;;3.53;;
51248;SDS011;39642;47.556;18.728;2023-04-01T22:08:35;9.70;;;3.33;;
51248;SDS011;39642;47.556;18.728;2023-04-01T22:11:31;11.27;;;3.50;;
51248;SDS011;39642;47.556;18.728;2023-04-01T22:14:17;9.55;;;3.20;;
51248;SDS011;39642;47.556;18.728;2023-04-01T22:17:08;9.57;;;3.30;;
51248;SDS011;39642;47.556;18.728;2023-04-01T22:22:49;9.55;;;3.30;;
51248;SDS011;39642;47.556;18.728;2023-04-01T22:25:35;9.43;;;3.12;;
51248;SDS011;39642;47.556;18.728;2023-04-01T22:28:42;9.65;;;3.30;;
51248;SDS011;39642;47.556;18.728;2023-04-01T22:31:03;9.38;;;3.28;;
51248;SDS011;39642;47.556;18.728;2023-04-01T22:36:20;9.35;;;3.12;;
51248;SDS011;39642;47.556;18.728;2023-04-01T22:42:00;9.38;;;2.78;;
51248;SDS011;39642;47.556;18.728;2023-04-01T22:49:55;9.32;;;3.10;;
51248;SDS011;39642;47.556;18.728;2023-04-01T22:52:38;9.10;;;2.90;;
51248;SDS011;39642;47.556;18.728;2023-04-01T22:55:14;8.48;;;2.78;;
51248;SDS011;39642;47.556;18.728;2023-04-01T22:57:54;9.32;;;2.90;;
51248;SDS011;39642;47.556;18.728;2023-04-01T23:00:32;8.93;;;2.70;;
51248;SDS011;39642;47.556;18.728;2023-04-01T23:05:35;7.62;;;2.50;;
51248;SDS011;39642;47.556;18.728;2023-04-01T23:11:06;8.90;;;2.75;;
51248;SDS011;39642;47.556;18.728;2023-04-01T23:13:46;8.73;;;2.75;;
51248;SDS011;39642;47.556;18.728;2023-04-01T23:16:25;8.02;;;2.50;;
51248;SDS011;39642;47.556;18.728;2023-04-01T23:19:04;8.20;;;2.58;;
51248;SDS011;39642;47.556;18.728;2023-04-01T23:21:40;8.50;;;2.65;;
51248;SDS011;39642;47.556;18.728;2023-04-01T23:24:20;8.63;;;2.80;;
51248;SDS011;39642;47.556;18.728;2023-04-01T23:27:26;7.65;;;2.67;;
51248;SDS011;39642;47.556;18.728;2023-04-01T23:29:52;9.30;;;2.58;;
51248;SDS011;39642;47.556;18.728;2023-04-01T23:32:18;7.82;;;2.47;;
51248;SDS011;39642;47.556;18.728;2023-04-01T23:34:51;8.60;;;2.40;;
51248;SDS011;39642;47.556;18.728;2023-04-01T23:37:19;8.65;;;2.50;;
51248;SDS011;39642;47.556;18.728;2023-04-01T23:39:47;7.78;;;2.40;;
51248;SDS011;39642;47.556;18.728;2023-04-01T23:42:26;8.88;;;2.87;;
51248;SDS011;39642;47.556;18.728;2023-04-01T23:44:58;7.95;;;2.22;;
51248;SDS011;39642;47.556;18.728;2023-04-01T23:47:31;7.68;;;2.40;;
51248;SDS011;39642;47.556;18.728;2023-04-01T23:50:00;7.72;;;2.15;;
51248;SDS011;39642;47.556;18.728;2023-04-01T23:52:31;8.40;;;2.35;;
51248;SDS011;39642;47.556;18.728;2023-04-01T23:55:03;8.63;;;2.42;;
51248;SDS011;39642;47.556;18.728;2023-04-01T23:58:00;8.95;;;2.37;;
